sensor_id;sensor_type;location;lat;lon;timestamp;temperature;humidity
16287;DHT22;8251;53.568;10.018;2023-12-20T00:00:10;9.60;94.20
16287;DHT22;8251;53.568;10.018;2023-12-20T00:02:37;9.40;94.10
16287;DHT22;8251;53.568;10.018;2023-12-20T00:05:05;9.40;94.30
16287;DHT22;8251;53.568;10.018;2023-12-20T00:07:32;9.50;94.20
16287;DHT22;8251;53.568;10.018;2023-12-20T00:10:00;9.40;94.20
16287;DHT22;8251;53.568;10.018;2023-12-20T00:12:27;9.40;94.30
16287;DHT22;8251;53.568;10.018;2023-12-20T00:14:53;9.40;94.10
16287;DHT22;8251;53.568;10.018;2023-12-20T00:17:20;9.30;94.20
16287;DHT22;8251;53.568;10.018;2023-12-20T00:19:47;9.50;94.20
16287;DHT22;8251;53.568;10.018;2023-12-20T00:22:15;9.20;94.30
16287;DHT22;8251;53.568;10.018;2023-12-20T00:24:41;9.20;94.30
16287;DHT22;8251;53.568;10.018;2023-12-20T00:27:10;9.50;94.30
16287;DHT22;8251;53.568;10.018;2023-12-20T00:29:39;9.20;94.30
16287;DHT22;8251;53.568;10.018;2023-12-20T00:32:08;9.10;94.40
16287;DHT22;8251;53.568;10.018;2023-12-20T00:34:35;9.10;94.50
16287;DHT22;8251;53.568;10.018;2023-12-20T00:37:02;9.20;94.50
16287;DHT22;8251;53.568;10.018;2023-12-20T00:39:30;9.00;94.50
16287;DHT22;8251;53.568;10.018;2023-12-20T00:41:57;9.00;94.50
16287;DHT22;8251;53.568;10.018;2023-12-20T00:44:25;9.00;94.60
16287;DHT22;8251;53.568;10.018;2023-12-20T00:46:52;8.90;94.70
16287;DHT22;8251;53.568;10.018;2023-12-20T00:49:19;8.90;94.90
16287;DHT22;8251;53.568;10.018;2023-12-20T00:51:46;8.80;94.80
16287;DHT22;8251;53.568;10.018;2023-12-20T00:54:15;8.80;94.80
16287;DHT22;8251;53.568;10.018;2023-12-20T00:56:42;8.90;94.80
16287;DHT22;8251;53.568;10.018;2023-12-20T00:59:09;8.90;94.70
16287;DHT22;8251;53.568;10.018;2023-12-20T01:01:38;9.10;94.80
16287;DHT22;8251;53.568;10.018;2023-12-20T01:04:05;9.10;94.80
16287;DHT22;8251;53.568;10.018;2023-12-20T01:06:32;8.90;94.80
16287;DHT22;8251;53.568;10.018;2023-12-20T01:08:59;8.80;94.80
16287;DHT22;8251;53.568;10.018;2023-12-20T01:11:26;8.90;94.60
16287;DHT22;8251;53.568;10.018;2023-12-20T01:13:53;9.10;94.60
16287;DHT22;8251;53.568;10.018;2023-12-20T01:16:20;8.90;94.50
16287;DHT22;8251;53.568;10.018;2023-12-20T01:18:49;8.90;94.60
16287;DHT22;8251;53.568;10.018;2023-12-20T01:21:16;8.90;94.50
16287;DHT22;8251;53.568;10.018;2023-12-20T01:23:42;9.30;94.60
16287;DHT22;8251;53.568;10.018;2023-12-20T01:26:09;8.90;94.40
16287;DHT22;8251;53.568;10.018;2023-12-20T01:28:37;9.00;94.30
16287;DHT22;8251;53.568;10.018;2023-12-20T01:31:04;8.90;94.40
16287;DHT22;8251;53.568;10.018;2023-12-20T01:33:31;8.90;94.40
16287;DHT22;8251;53.568;10.018;2023-12-20T01:36:04;8.90;94.30
16287;DHT22;8251;53.568;10.018;2023-12-20T01:38:31;8.90;94.40
16287;DHT22;8251;53.568;10.018;2023-12-20T01:40:58;8.80;94.30
16287;DHT22;8251;53.568;10.018;2023-12-20T01:43:29;8.70;94.40
16287;DHT22;8251;53.568;10.018;2023-12-20T01:45:57;8.80;94.40
16287;DHT22;8251;53.568;10.018;2023-12-20T01:48:24;8.70;94.50
16287;DHT22;8251;53.568;10.018;2023-12-20T01:50:52;8.70;94.50
16287;DHT22;8251;53.568;10.018;2023-12-20T01:53:21;8.70;94.60
16287;DHT22;8251;53.568;10.018;2023-12-20T01:55:55;8.70;94.80
16287;DHT22;8251;53.568;10.018;2023-12-20T01:58:23;8.50;94.70
16287;DHT22;8251;53.568;10.018;2023-12-20T02:00:51;8.60;94.70
16287;DHT22;8251;53.568;10.018;2023-12-20T02:03:20;8.60;94.70
16287;DHT22;8251;53.568;10.018;2023-12-20T02:05:53;8.60;94.80
16287;DHT22;8251;53.568;10.018;2023-12-20T02:08:22;8.60;94.80
16287;DHT22;8251;53.568;10.018;2023-12-20T02:10:49;8.50;94.80
16287;DHT22;8251;53.568;10.018;2023-12-20T02:13:16;8.40;95.00
16287;DHT22;8251;53.568;10.018;2023-12-20T02:15:44;8.20;94.90
16287;DHT22;8251;53.568;10.018;2023-12-20T02:18:11;8.30;95.00
16287;DHT22;8251;53.568;10.018;2023-12-20T02:20:53;8.30;95.10
16287;DHT22;8251;53.568;10.018;2023-12-20T02:23:22;8.30;95.00
16287;DHT22;8251;53.568;10.018;2023-12-20T02:25:49;8.30;95.10
16287;DHT22;8251;53.568;10.018;2023-12-20T02:28:17;8.50;95.10
16287;DHT22;8251;53.568;10.018;2023-12-20T02:30:44;8.40;95.20
16287;DHT22;8251;53.568;10.018;2023-12-20T02:33:12;8.40;95.10
16287;DHT22;8251;53.568;10.018;2023-12-20T02:35:40;8.40;95.10
16287;DHT22;8251;53.568;10.018;2023-12-20T02:38:08;8.50;95.00
16287;DHT22;8251;53.568;10.018;2023-12-20T02:40:38;8.50;95.00
16287;DHT22;8251;53.568;10.018;2023-12-20T02:43:05;8.70;95.10
16287;DHT22;8251;53.568;10.018;2023-12-20T02:45:32;8.50;94.90
16287;DHT22;8251;53.568;10.018;2023-12-20T02:48:00;8.20;94.80
16287;DHT22;8251;53.568;10.018;2023-12-20T02:50:27;8.50;94.90
16287;DHT22;8251;53.568;10.018;2023-12-20T02:52:53;8.50;94.80
16287;DHT22;8251;53.568;10.018;2023-12-20T02:55:20;8.50;94.90
16287;DHT22;8251;53.568;10.018;2023-12-20T02:57:49;8.60;94.80
16287;DHT22;8251;53.568;10.018;2023-12-20T03:00:16;8.40;94.70
16287;DHT22;8251;53.568;10.018;2023-12-20T03:02:43;8.60;94.70
16287;DHT22;8251;53.568;10.018;2023-12-20T03:05:13;8.50;94.60
16287;DHT22;8251;53.568;10.018;2023-12-20T03:07:41;8.60;94.70
16287;DHT22;8251;53.568;10.018;2023-12-20T03:10:08;8.60;94.70
16287;DHT22;8251;53.568;10.018;2023-12-20T03:12:35;8.60;94.60
16287;DHT22;8251;53.568;10.018;2023-12-20T03:15:07;8.60;94.60
16287;DHT22;8251;53.568;10.018;2023-12-20T03:17:34;8.60;94.60
16287;DHT22;8251;53.568;10.018;2023-12-20T03:20:02;8.50;94.50
16287;DHT22;8251;53.568;10.018;2023-12-20T03:22:29;8.50;94.50
16287;DHT22;8251;53.568;10.018;2023-12-20T03:24:56;8.60;94.50
16287;DHT22;8251;53.568;10.018;2023-12-20T03:27:23;8.50;94.40
16287;DHT22;8251;53.568;10.018;2023-12-20T03:29:52;8.60;94.50
16287;DHT22;8251;53.568;10.018;2023-12-20T03:32:21;8.40;94.50
16287;DHT22;8251;53.568;10.018;2023-12-20T03:34:48;8.80;94.70
16287;DHT22;8251;53.568;10.018;2023-12-20T03:37:15;8.60;94.40
16287;DHT22;8251;53.568;10.018;2023-12-20T03:39:42;8.80;94.60
16287;DHT22;8251;53.568;10.018;2023-12-20T03:42:09;8.60;94.50
16287;DHT22;8251;53.568;10.018;2023-12-20T03:44:38;8.50;94.50
16287;DHT22;8251;53.568;10.018;2023-12-20T03:47:05;8.50;94.60
16287;DHT22;8251;53.568;10.018;2023-12-20T03:49:34;8.60;94.40
16287;DHT22;8251;53.568;10.018;2023-12-20T03:52:04;8.60;94.50
16287;DHT22;8251;53.568;10.018;2023-12-20T03:54:32;8.50;94.50
16287;DHT22;8251;53.568;10.018;2023-12-20T03:57:01;8.50;94.30
16287;DHT22;8251;53.568;10.018;2023-12-20T03:59:29;8.50;94.50
16287;DHT22;8251;53.568;10.018;2023-12-20T04:01:59;8.50;94.50
16287;DHT22;8251;53.568;10.018;2023-12-20T04:04:26;8.50;94.40
16287;DHT22;8251;53.568;10.018;2023-12-20T04:06:57;8.50;94.50
16287;DHT22;8251;53.568;10.018;2023-12-20T04:09:25;8.60;94.40
16287;DHT22;8251;53.568;10.018;2023-12-20T04:11:52;8.60;94.50
16287;DHT22;8251;53.568;10.018;2023-12-20T04:14:19;8.80;94.60
16287;DHT22;8251;53.568;10.018;2023-12-20T04:16:46;8.70;94.30
16287;DHT22;8251;53.568;10.018;2023-12-20T04:19:14;8.50;94.50
16287;DHT22;8251;53.568;10.018;2023-12-20T04:21:41;8.60;94.50
16287;DHT22;8251;53.568;10.018;2023-12-20T04:24:10;8.60;94.50
16287;DHT22;8251;53.568;10.018;2023-12-20T04:26:37;8.60;94.50
16287;DHT22;8251;53.568;10.018;2023-12-20T04:29:04;8.60;94.40
16287;DHT22;8251;53.568;10.018;2023-12-20T04:31:31;8.60;94.40
16287;DHT22;8251;53.568;10.018;2023-12-20T04:33:58;8.50;94.60
16287;DHT22;8251;53.568;10.018;2023-12-20T04:36:25;8.60;94.50
16287;DHT22;8251;53.568;10.018;2023-12-20T04:38:53;8.80;94.70
16287;DHT22;8251;53.568;10.018;2023-12-20T04:41:21;8.70;94.80
16287;DHT22;8251;53.568;10.018;2023-12-20T04:43:49;8.40;94.80
16287;DHT22;8251;53.568;10.018;2023-12-20T04:46:16;8.40;94.50
16287;DHT22;8251;53.568;10.018;2023-12-20T04:48:43;8.40;94.70
16287;DHT22;8251;53.568;10.018;2023-12-20T04:51:10;8.60;94.80
16287;DHT22;8251;53.568;10.018;2023-12-20T04:53:38;8.50;94.80
16287;DHT22;8251;53.568;10.018;2023-12-20T04:56:05;8.40;94.70
16287;DHT22;8251;53.568;10.018;2023-12-20T04:58:37;8.40;94.70
16287;DHT22;8251;53.568;10.018;2023-12-20T05:01:04;8.70;94.90
16287;DHT22;8251;53.568;10.018;2023-12-20T05:03:32;8.50;94.80
16287;DHT22;8251;53.568;10.018;2023-12-20T05:06:02;8.50;94.70
16287;DHT22;8251;53.568;10.018;2023-12-20T05:08:29;8.50;94.80
16287;DHT22;8251;53.568;10.018;2023-12-20T05:10:56;8.60;94.70
16287;DHT22;8251;53.568;10.018;2023-12-20T05:13:24;8.50;94.70
16287;DHT22;8251;53.568;10.018;2023-12-20T05:15:52;8.60;94.80
16287;DHT22;8251;53.568;10.018;2023-12-20T05:18:20;8.70;94.70
16287;DHT22;8251;53.568;10.018;2023-12-20T05:20:48;8.60;94.50
16287;DHT22;8251;53.568;10.018;2023-12-20T05:23:15;8.50;94.80
16287;DHT22;8251;53.568;10.018;2023-12-20T05:25:43;8.50;94.80
16287;DHT22;8251;53.568;10.018;2023-12-20T05:28:11;8.50;94.80
16287;DHT22;8251;53.568;10.018;2023-12-20T05:30:38;8.50;94.90
16287;DHT22;8251;53.568;10.018;2023-12-20T05:33:06;8.80;94.80
16287;DHT22;8251;53.568;10.018;2023-12-20T05:35:33;8.70;94.70
16287;DHT22;8251;53.568;10.018;2023-12-20T05:38:00;8.60;94.80
16287;DHT22;8251;53.568;10.018;2023-12-20T05:40:32;8.60;94.70
16287;DHT22;8251;53.568;10.018;2023-12-20T05:42:59;8.80;95.10
16287;DHT22;8251;53.568;10.018;2023-12-20T05:45:38;8.80;94.80
16287;DHT22;8251;53.568;10.018;2023-12-20T05:48:07;8.80;95.20
16287;DHT22;8251;53.568;10.018;2023-12-20T05:50:35;8.80;94.80
16287;DHT22;8251;53.568;10.018;2023-12-20T05:53:03;8.60;94.80
16287;DHT22;8251;53.568;10.018;2023-12-20T05:55:30;8.70;95.00
16287;DHT22;8251;53.568;10.018;2023-12-20T05:57:57;9.00;94.90
16287;DHT22;8251;53.568;10.018;2023-12-20T06:00:24;8.70;94.90
16287;DHT22;8251;53.568;10.018;2023-12-20T06:02:52;8.80;94.90
16287;DHT22;8251;53.568;10.018;2023-12-20T06:05:20;8.70;94.80
16287;DHT22;8251;53.568;10.018;2023-12-20T06:07:48;8.70;94.90
16287;DHT22;8251;53.568;10.018;2023-12-20T06:10:16;8.70;94.90
16287;DHT22;8251;53.568;10.018;2023-12-20T06:12:43;8.80;94.90
16287;DHT22;8251;53.568;10.018;2023-12-20T06:15:13;8.90;94.80
16287;DHT22;8251;53.568;10.018;2023-12-20T06:17:40;8.90;94.80
16287;DHT22;8251;53.568;10.018;2023-12-20T06:20:08;8.90;94.50
16287;DHT22;8251;53.568;10.018;2023-12-20T06:22:36;8.80;94.50
16287;DHT22;8251;53.568;10.018;2023-12-20T06:25:05;8.80;94.40
16287;DHT22;8251;53.568;10.018;2023-12-20T06:27:32;8.80;94.40
16287;DHT22;8251;53.568;10.018;2023-12-20T06:29:59;8.70;94.40
16287;DHT22;8251;53.568;10.018;2023-12-20T06:32:26;8.70;94.40
16287;DHT22;8251;53.568;10.018;2023-12-20T06:34:54;8.70;94.40
16287;DHT22;8251;53.568;10.018;2023-12-20T06:37:23;8.60;94.40
16287;DHT22;8251;53.568;10.018;2023-12-20T06:40:00;8.60;94.50
16287;DHT22;8251;53.568;10.018;2023-12-20T06:42:27;8.60;94.60
16287;DHT22;8251;53.568;10.018;2023-12-20T06:44:56;8.60;94.50
16287;DHT22;8251;53.568;10.018;2023-12-20T06:47:23;8.60;94.70
16287;DHT22;8251;53.568;10.018;2023-12-20T06:49:51;9.00;94.70
16287;DHT22;8251;53.568;10.018;2023-12-20T06:52:18;8.80;94.50
16287;DHT22;8251;53.568;10.018;2023-12-20T06:54:48;8.80;94.50
16287;DHT22;8251;53.568;10.018;2023-12-20T06:57:26;8.80;94.40
16287;DHT22;8251;53.568;10.018;2023-12-20T06:59:55;8.80;94.40
16287;DHT22;8251;53.568;10.018;2023-12-20T07:02:23;8.80;94.40
16287;DHT22;8251;53.568;10.018;2023-12-20T07:04:50;8.80;94.30
16287;DHT22;8251;53.568;10.018;2023-12-20T07:07:20;9.10;94.40
16287;DHT22;8251;53.568;10.018;2023-12-20T07:09:48;8.90;94.30
16287;DHT22;8251;53.568;10.018;2023-12-20T07:12:15;8.80;94.30
16287;DHT22;8251;53.568;10.018;2023-12-20T07:14:51;8.80;94.30
16287;DHT22;8251;53.568;10.018;2023-12-20T07:17:18;8.80;94.40
16287;DHT22;8251;53.568;10.018;2023-12-20T07:19:45;8.90;94.00
16287;DHT22;8251;53.568;10.018;2023-12-20T07:22:12;8.80;94.20
16287;DHT22;8251;53.568;10.018;2023-12-20T07:24:39;8.80;94.30
16287;DHT22;8251;53.568;10.018;2023-12-20T07:27:06;8.80;94.30
16287;DHT22;8251;53.568;10.018;2023-12-20T07:29:33;8.80;94.40
16287;DHT22;8251;53.568;10.018;2023-12-20T07:32:01;8.80;94.50
16287;DHT22;8251;53.568;10.018;2023-12-20T07:34:28;8.80;94.40
16287;DHT22;8251;53.568;10.018;2023-12-20T07:36:55;8.90;94.40
16287;DHT22;8251;53.568;10.018;2023-12-20T07:39:22;8.90;94.30
16287;DHT22;8251;53.568;10.018;2023-12-20T07:41:49;8.90;94.20
16287;DHT22;8251;53.568;10.018;2023-12-20T07:44:16;8.90;94.30
16287;DHT22;8251;53.568;10.018;2023-12-20T07:46:46;8.90;94.20
16287;DHT22;8251;53.568;10.018;2023-12-20T07:49:15;8.90;94.20
16287;DHT22;8251;53.568;10.018;2023-12-20T07:51:45;9.00;94.10
16287;DHT22;8251;53.568;10.018;2023-12-20T07:54:12;8.90;94.30
16287;DHT22;8251;53.568;10.018;2023-12-20T07:56:39;8.90;94.30
16287;DHT22;8251;53.568;10.018;2023-12-20T07:59:05;9.00;94.10
16287;DHT22;8251;53.568;10.018;2023-12-20T08:01:32;9.00;94.20
16287;DHT22;8251;53.568;10.018;2023-12-20T08:03:59;9.10;94.20
16287;DHT22;8251;53.568;10.018;2023-12-20T08:06:27;9.00;94.10
16287;DHT22;8251;53.568;10.018;2023-12-20T08:08:54;9.00;94.10
16287;DHT22;8251;53.568;10.018;2023-12-20T08:11:21;9.10;94.20
16287;DHT22;8251;53.568;10.018;2023-12-20T08:14:00;9.10;94.00
16287;DHT22;8251;53.568;10.018;2023-12-20T08:16:27;9.00;93.90
16287;DHT22;8251;53.568;10.018;2023-12-20T08:18:54;9.00;94.00
16287;DHT22;8251;53.568;10.018;2023-12-20T08:21:20;9.00;93.80
16287;DHT22;8251;53.568;10.018;2023-12-20T08:23:49;9.00;93.90
16287;DHT22;8251;53.568;10.018;2023-12-20T08:26:19;9.10;93.90
16287;DHT22;8251;53.568;10.018;2023-12-20T08:28:47;9.10;93.90
16287;DHT22;8251;53.568;10.018;2023-12-20T08:31:14;9.10;93.80
16287;DHT22;8251;53.568;10.018;2023-12-20T08:33:45;9.10;93.80
16287;DHT22;8251;53.568;10.018;2023-12-20T08:36:12;9.20;93.80
16287;DHT22;8251;53.568;10.018;2023-12-20T08:38:39;9.10;93.80
16287;DHT22;8251;53.568;10.018;2023-12-20T08:41:07;9.20;93.80
16287;DHT22;8251;53.568;10.018;2023-12-20T08:43:35;9.20;93.90
16287;DHT22;8251;53.568;10.018;2023-12-20T08:46:02;9.20;93.80
16287;DHT22;8251;53.568;10.018;2023-12-20T08:48:29;9.20;93.80
16287;DHT22;8251;53.568;10.018;2023-12-20T08:50:56;9.20;93.80
16287;DHT22;8251;53.568;10.018;2023-12-20T08:53:23;9.20;94.00
16287;DHT22;8251;53.568;10.018;2023-12-20T08:55:53;9.20;94.00
16287;DHT22;8251;53.568;10.018;2023-12-20T08:58:26;9.20;93.90
16287;DHT22;8251;53.568;10.018;2023-12-20T09:00:53;9.20;94.20
16287;DHT22;8251;53.568;10.018;2023-12-20T09:03:23;9.20;94.20
16287;DHT22;8251;53.568;10.018;2023-12-20T09:05:50;9.30;94.20
16287;DHT22;8251;53.568;10.018;2023-12-20T09:08:16;9.20;94.30
16287;DHT22;8251;53.568;10.018;2023-12-20T09:10:43;9.10;94.30
16287;DHT22;8251;53.568;10.018;2023-12-20T09:13:11;9.10;94.40
16287;DHT22;8251;53.568;10.018;2023-12-20T09:15:39;9.00;94.70
16287;DHT22;8251;53.568;10.018;2023-12-20T09:18:06;9.00;94.70
16287;DHT22;8251;53.568;10.018;2023-12-20T09:20:34;9.00;94.90
16287;DHT22;8251;53.568;10.018;2023-12-20T09:23:01;9.00;95.10
16287;DHT22;8251;53.568;10.018;2023-12-20T09:25:28;9.00;95.10
16287;DHT22;8251;53.568;10.018;2023-12-20T09:27:55;9.00;94.90
16287;DHT22;8251;53.568;10.018;2023-12-20T09:30:22;9.00;95.00
16287;DHT22;8251;53.568;10.018;2023-12-20T09:32:52;9.00;95.10
16287;DHT22;8251;53.568;10.018;2023-12-20T09:35:18;9.00;95.00
16287;DHT22;8251;53.568;10.018;2023-12-20T09:37:48;8.90;95.00
16287;DHT22;8251;53.568;10.018;2023-12-20T09:40:18;8.90;94.80
16287;DHT22;8251;53.568;10.018;2023-12-20T09:42:48;8.90;94.80
16287;DHT22;8251;53.568;10.018;2023-12-20T09:45:20;9.00;94.80
16287;DHT22;8251;53.568;10.018;2023-12-20T09:47:53;9.00;94.70
16287;DHT22;8251;53.568;10.018;2023-12-20T09:50:21;9.10;94.60
16287;DHT22;8251;53.568;10.018;2023-12-20T09:52:50;9.10;94.40
16287;DHT22;8251;53.568;10.018;2023-12-20T09:55:18;9.40;94.20
16287;DHT22;8251;53.568;10.018;2023-12-20T09:57:46;9.20;93.70
16287;DHT22;8251;53.568;10.018;2023-12-20T10:00:13;9.30;93.60
16287;DHT22;8251;53.568;10.018;2023-12-20T10:02:45;9.30;93.80
16287;DHT22;8251;53.568;10.018;2023-12-20T10:05:18;9.20;92.90
16287;DHT22;8251;53.568;10.018;2023-12-20T10:07:47;9.20;93.00
16287;DHT22;8251;53.568;10.018;2023-12-20T10:10:14;9.10;92.50
16287;DHT22;8251;53.568;10.018;2023-12-20T10:13:00;9.10;92.60
16287;DHT22;8251;53.568;10.018;2023-12-20T10:15:27;9.10;92.90
16287;DHT22;8251;53.568;10.018;2023-12-20T10:18:00;9.10;92.80
16287;DHT22;8251;53.568;10.018;2023-12-20T10:20:29;9.00;92.60
16287;DHT22;8251;53.568;10.018;2023-12-20T10:22:59;9.20;92.50
16287;DHT22;8251;53.568;10.018;2023-12-20T10:25:26;9.10;92.40
16287;DHT22;8251;53.568;10.018;2023-12-20T10:28:09;9.10;92.10
16287;DHT22;8251;53.568;10.018;2023-12-20T10:30:36;9.00;92.30
16287;DHT22;8251;53.568;10.018;2023-12-20T10:33:04;8.90;92.10
16287;DHT22;8251;53.568;10.018;2023-12-20T10:35:33;8.90;92.50
16287;DHT22;8251;53.568;10.018;2023-12-20T10:38:04;9.00;92.40
16287;DHT22;8251;53.568;10.018;2023-12-20T10:40:35;9.00;92.50
16287;DHT22;8251;53.568;10.018;2023-12-20T10:43:04;9.00;92.50
16287;DHT22;8251;53.568;10.018;2023-12-20T10:45:31;9.00;92.40
16287;DHT22;8251;53.568;10.018;2023-12-20T10:47:58;9.10;92.40
16287;DHT22;8251;53.568;10.018;2023-12-20T10:50:27;9.00;92.40
16287;DHT22;8251;53.568;10.018;2023-12-20T10:52:57;8.90;92.20
16287;DHT22;8251;53.568;10.018;2023-12-20T10:55:25;9.00;92.50
16287;DHT22;8251;53.568;10.018;2023-12-20T10:57:52;8.90;92.60
16287;DHT22;8251;53.568;10.018;2023-12-20T11:00:25;8.90;92.50
16287;DHT22;8251;53.568;10.018;2023-12-20T11:02:53;8.90;92.60
16287;DHT22;8251;53.568;10.018;2023-12-20T11:05:30;8.80;92.70
16287;DHT22;8251;53.568;10.018;2023-12-20T11:08:16;8.90;92.80
16287;DHT22;8251;53.568;10.018;2023-12-20T11:10:56;8.90;92.70
16287;DHT22;8251;53.568;10.018;2023-12-20T11:13:30;8.80;93.00
16287;DHT22;8251;53.568;10.018;2023-12-20T11:15:58;8.90;93.00
16287;DHT22;8251;53.568;10.018;2023-12-20T11:18:28;8.90;93.00
16287;DHT22;8251;53.568;10.018;2023-12-20T11:21:04;8.90;92.90
16287;DHT22;8251;53.568;10.018;2023-12-20T11:23:33;8.90;93.10
16287;DHT22;8251;53.568;10.018;2023-12-20T11:26:01;8.90;93.20
16287;DHT22;8251;53.568;10.018;2023-12-20T11:28:29;9.00;93.10
16287;DHT22;8251;53.568;10.018;2023-12-20T11:30:57;9.00;93.10
16287;DHT22;8251;53.568;10.018;2023-12-20T11:33:26;9.00;93.10
16287;DHT22;8251;53.568;10.018;2023-12-20T11:35:56;9.00;93.00
16287;DHT22;8251;53.568;10.018;2023-12-20T11:38:23;9.00;93.20
16287;DHT22;8251;53.568;10.018;2023-12-20T11:40:54;9.00;93.10
16287;DHT22;8251;53.568;10.018;2023-12-20T11:43:30;9.00;93.10
16287;DHT22;8251;53.568;10.018;2023-12-20T11:46:03;8.90;93.10
16287;DHT22;8251;53.568;10.018;2023-12-20T11:48:32;8.90;93.10
16287;DHT22;8251;53.568;10.018;2023-12-20T11:50:59;8.90;92.80
16287;DHT22;8251;53.568;10.018;2023-12-20T11:53:26;8.90;93.00
16287;DHT22;8251;53.568;10.018;2023-12-20T11:55:55;8.80;93.10
16287;DHT22;8251;53.568;10.018;2023-12-20T11:58:22;8.90;93.20
16287;DHT22;8251;53.568;10.018;2023-12-20T12:00:50;8.90;93.60
16287;DHT22;8251;53.568;10.018;2023-12-20T12:03:17;8.80;93.40
16287;DHT22;8251;53.568;10.018;2023-12-20T12:05:50;8.90;93.50
16287;DHT22;8251;53.568;10.018;2023-12-20T12:08:17;8.90;93.60
16287;DHT22;8251;53.568;10.018;2023-12-20T12:10:44;8.90;93.70
16287;DHT22;8251;53.568;10.018;2023-12-20T12:13:13;8.90;93.40
16287;DHT22;8251;53.568;10.018;2023-12-20T12:15:41;8.90;93.30
16287;DHT22;8251;53.568;10.018;2023-12-20T12:18:10;8.90;93.40
16287;DHT22;8251;53.568;10.018;2023-12-20T12:20:37;8.80;93.50
16287;DHT22;8251;53.568;10.018;2023-12-20T12:23:05;8.80;93.60
16287;DHT22;8251;53.568;10.018;2023-12-20T12:25:34;8.90;93.70
16287;DHT22;8251;53.568;10.018;2023-12-20T12:28:02;8.90;93.70
16287;DHT22;8251;53.568;10.018;2023-12-20T12:30:30;8.90;93.80
16287;DHT22;8251;53.568;10.018;2023-12-20T12:32:57;9.00;93.80
16287;DHT22;8251;53.568;10.018;2023-12-20T12:35:24;9.00;93.60
16287;DHT22;8251;53.568;10.018;2023-12-20T12:37:51;9.10;93.60
16287;DHT22;8251;53.568;10.018;2023-12-20T12:40:18;9.10;93.60
16287;DHT22;8251;53.568;10.018;2023-12-20T12:42:45;9.10;93.30
16287;DHT22;8251;53.568;10.018;2023-12-20T12:45:13;9.10;93.00
16287;DHT22;8251;53.568;10.018;2023-12-20T12:47:41;9.20;92.70
16287;DHT22;8251;53.568;10.018;2023-12-20T12:50:09;9.10;92.60
16287;DHT22;8251;53.568;10.018;2023-12-20T12:52:35;9.10;92.40
16287;DHT22;8251;53.568;10.018;2023-12-20T12:55:03;9.20;92.50
16287;DHT22;8251;53.568;10.018;2023-12-20T12:57:30;9.20;92.10
16287;DHT22;8251;53.568;10.018;2023-12-20T12:59:57;9.20;92.00
16287;DHT22;8251;53.568;10.018;2023-12-20T13:02:24;9.30;92.10
16287;DHT22;8251;53.568;10.018;2023-12-20T13:05:00;9.40;92.00
16287;DHT22;8251;53.568;10.018;2023-12-20T13:07:35;9.30;91.60
16287;DHT22;8251;53.568;10.018;2023-12-20T13:10:05;9.30;91.60
16287;DHT22;8251;53.568;10.018;2023-12-20T13:12:32;9.30;91.20
16287;DHT22;8251;53.568;10.018;2023-12-20T13:15:00;9.20;91.30
16287;DHT22;8251;53.568;10.018;2023-12-20T13:17:29;9.30;91.40
16287;DHT22;8251;53.568;10.018;2023-12-20T13:19:57;9.30;91.50
16287;DHT22;8251;53.568;10.018;2023-12-20T13:22:25;9.40;91.40
16287;DHT22;8251;53.568;10.018;2023-12-20T13:24:52;9.40;91.30
16287;DHT22;8251;53.568;10.018;2023-12-20T13:27:19;9.40;91.20
16287;DHT22;8251;53.568;10.018;2023-12-20T13:29:46;9.40;91.30
16287;DHT22;8251;53.568;10.018;2023-12-20T13:32:13;9.30;90.90
16287;DHT22;8251;53.568;10.018;2023-12-20T13:34:40;9.30;91.10
16287;DHT22;8251;53.568;10.018;2023-12-20T13:37:08;9.30;91.10
16287;DHT22;8251;53.568;10.018;2023-12-20T13:39:35;9.20;91.10
16287;DHT22;8251;53.568;10.018;2023-12-20T13:42:02;9.30;91.20
16287;DHT22;8251;53.568;10.018;2023-12-20T13:44:29;9.30;91.10
16287;DHT22;8251;53.568;10.018;2023-12-20T13:46:56;9.30;91.20
16287;DHT22;8251;53.568;10.018;2023-12-20T13:49:23;9.20;91.00
16287;DHT22;8251;53.568;10.018;2023-12-20T13:51:51;9.20;91.10
16287;DHT22;8251;53.568;10.018;2023-12-20T13:54:21;9.20;91.00
16287;DHT22;8251;53.568;10.018;2023-12-20T13:56:48;9.10;91.00
16287;DHT22;8251;53.568;10.018;2023-12-20T13:59:15;9.40;91.10
16287;DHT22;8251;53.568;10.018;2023-12-20T14:01:42;9.20;91.20
16287;DHT22;8251;53.568;10.018;2023-12-20T14:04:09;9.10;91.10
16287;DHT22;8251;53.568;10.018;2023-12-20T14:06:37;9.20;91.10
16287;DHT22;8251;53.568;10.018;2023-12-20T14:09:04;9.20;91.20
16287;DHT22;8251;53.568;10.018;2023-12-20T14:11:32;9.10;91.20
16287;DHT22;8251;53.568;10.018;2023-12-20T14:13:59;9.20;91.10
16287;DHT22;8251;53.568;10.018;2023-12-20T14:16:27;9.20;91.20
16287;DHT22;8251;53.568;10.018;2023-12-20T14:18:54;9.20;91.00
16287;DHT22;8251;53.568;10.018;2023-12-20T14:21:23;9.20;90.70
16287;DHT22;8251;53.568;10.018;2023-12-20T14:23:50;9.20;90.80
16287;DHT22;8251;53.568;10.018;2023-12-20T14:26:17;9.40;90.50
16287;DHT22;8251;53.568;10.018;2023-12-20T14:28:45;9.20;90.30
16287;DHT22;8251;53.568;10.018;2023-12-20T14:31:14;9.20;90.10
16287;DHT22;8251;53.568;10.018;2023-12-20T14:33:41;9.10;90.00
16287;DHT22;8251;53.568;10.018;2023-12-20T14:36:08;9.20;90.00
16287;DHT22;8251;53.568;10.018;2023-12-20T14:38:35;9.20;90.00
16287;DHT22;8251;53.568;10.018;2023-12-20T14:41:03;9.10;89.10
16287;DHT22;8251;53.568;10.018;2023-12-20T14:43:33;9.20;89.20
16287;DHT22;8251;53.568;10.018;2023-12-20T14:46:01;9.20;89.40
16287;DHT22;8251;53.568;10.018;2023-12-20T14:48:28;9.20;89.00
16287;DHT22;8251;53.568;10.018;2023-12-20T14:50:55;9.20;88.60
16287;DHT22;8251;53.568;10.018;2023-12-20T14:53:22;9.20;88.00
16287;DHT22;8251;53.568;10.018;2023-12-20T14:55:49;9.20;88.70
16287;DHT22;8251;53.568;10.018;2023-12-20T14:58:16;9.20;88.60
16287;DHT22;8251;53.568;10.018;2023-12-20T15:00:43;9.20;88.60
16287;DHT22;8251;53.568;10.018;2023-12-20T15:03:12;9.20;88.60
16287;DHT22;8251;53.568;10.018;2023-12-20T15:05:39;9.20;88.60
16287;DHT22;8251;53.568;10.018;2023-12-20T15:08:06;9.10;88.70
16287;DHT22;8251;53.568;10.018;2023-12-20T15:10:34;9.00;88.90
16287;DHT22;8251;53.568;10.018;2023-12-20T15:13:01;9.10;89.30
16287;DHT22;8251;53.568;10.018;2023-12-20T15:15:28;9.10;89.10
16287;DHT22;8251;53.568;10.018;2023-12-20T15:17:55;9.20;89.60
16287;DHT22;8251;53.568;10.018;2023-12-20T15:20:23;9.20;89.60
16287;DHT22;8251;53.568;10.018;2023-12-20T15:22:50;9.20;89.40
16287;DHT22;8251;53.568;10.018;2023-12-20T15:25:18;9.10;89.40
16287;DHT22;8251;53.568;10.018;2023-12-20T15:28:02;9.20;89.70
16287;DHT22;8251;53.568;10.018;2023-12-20T15:30:29;9.00;89.50
16287;DHT22;8251;53.568;10.018;2023-12-20T15:32:56;8.90;90.00
16287;DHT22;8251;53.568;10.018;2023-12-20T15:35:24;9.00;90.10
16287;DHT22;8251;53.568;10.018;2023-12-20T15:38:05;9.00;90.20
16287;DHT22;8251;53.568;10.018;2023-12-20T15:40:32;8.90;90.20
16287;DHT22;8251;53.568;10.018;2023-12-20T15:42:58;8.90;90.20
16287;DHT22;8251;53.568;10.018;2023-12-20T15:45:26;8.90;90.30
16287;DHT22;8251;53.568;10.018;2023-12-20T15:47:53;8.90;90.30
16287;DHT22;8251;53.568;10.018;2023-12-20T15:50:20;8.80;90.30